Time;durP1;ratioP1;P1;durP2;ratioP2;P2;SDS_P1;SDS_P2;PMS_P1;PMS_P2;Temp;Humidity;BMP_temperature;BMP_pressure;BME280_temperature;BME280_humidity;BME280_pressure;Samples;Min_cycle;Max_cycle;Signal;HPM_P1;HPM_P2
2022/09/24 00:00:43;;;;;;;5.73;4.17;;;19.70;61.90;20.80;100530.00;;;;4970079;28;20273;-44
2022/09/24 00:03:10;;;;;;;5.13;4.13;;;19.70;61.90;20.80;100524.00;;;;4969958;28;20174;-44
2022/09/24 00:05:39;;;;;;;5.63;4.37;;;19.70;61.90;20.80;100523.00;;;;4968510;28;20554;-44
2022/09/24 00:08:08;;;;;;;6.27;4.37;;;19.70;61.90;20.80;100523.00;;;;4969602;28;20563;-47
2022/09/24 00:10:38;;;;;;;5.77;4.43;;;19.70;61.90;20.70;100530.00;;;;4969394;28;20195;-43
2022/09/24 00:13:05;;;;;;;4.83;4.43;;;19.70;61.90;20.70;100515.00;;;;4968557;28;20173;-44
2022/09/24 00:15:31;;;;;;;7.33;4.40;;;19.70;61.90;20.70;100512.00;;;;4969641;28;20292;-43
2022/09/24 00:17:56;;;;;;;5.07;4.30;;;19.60;61.70;20.70;100511.00;;;;4952127;28;20252;-45
2022/09/24 00:20:22;;;;;;;5.27;4.00;;;19.70;61.90;20.70;100507.00;;;;4969449;28;20705;-45
2022/09/24 00:22:48;;;;;;;5.50;4.50;;;19.70;61.90;20.70;100511.00;;;;4970106;28;20224;-45
2022/09/24 00:27:58;;;;;;;4.67;4.20;;;19.60;61.70;20.70;100509.00;;;;4969269;28;20172;-43
2022/09/24 00:30:23;;;;;;;5.47;4.10;;;19.60;61.70;20.70;100496.00;;;;4968739;28;20173;-43
2022/09/24 00:32:49;;;;;;;4.77;4.23;;;19.50;61.70;20.70;100494.00;;;;4969523;28;20252;-43
2022/09/24 00:35:15;;;;;;;4.93;3.97;;;19.60;61.70;20.70;100496.00;;;;4970554;28;20197;-43
2022/09/24 00:37:41;;;;;;;5.80;4.03;;;19.60;61.80;20.60;100502.00;;;;4972379;28;20212;-43
2022/09/24 00:40:08;;;;;;;5.03;4.13;;;19.50;61.80;20.60;100506.00;;;;4969449;28;20189;-43
2022/09/24 00:42:34;;;;;;;7.83;4.13;;;19.50;61.80;20.60;100447.00;;;;4969497;28;20329;-42
2022/09/24 00:44:59;;;;;;;4.63;4.23;;;19.50;61.80;20.60;100526.00;;;;4969759;28;20283;-43
2022/09/24 00:47:31;;;;;;;4.87;3.83;;;19.50;61.80;20.60;100510.00;;;;4968680;28;20261;-45
2022/09/24 00:50:15;;;;;;;4.80;4.00;;;19.50;61.80;20.60;100515.00;;;;4952871;28;20686;-42
2022/09/24 00:52:58;;;;;;;4.97;4.30;;;19.50;61.70;20.60;100505.00;;;;4968019;28;20327;-44
2022/09/24 00:55:24;;;;;;;4.53;4.00;;;19.50;61.80;20.60;100498.00;;;;4967508;28;20698;-44
2022/09/24 00:57:55;;;;;;;4.47;4.07;;;19.50;61.80;20.60;100497.00;;;;4967627;28;20196;-45
2022/09/24 01:00:21;;;;;;;4.30;3.90;;;19.40;61.70;20.60;100509.00;;;;4967991;28;20165;-43
2022/09/24 01:02:48;;;;;;;4.90;4.03;;;19.50;61.80;20.60;100505.00;;;;4969452;28;20173;-45
2022/09/24 01:05:13;;;;;;;5.23;3.90;;;19.50;61.90;20.60;100517.00;;;;4967733;28;20199;-44
2022/09/24 01:07:39;;;;;;;6.33;4.10;;;19.40;61.80;20.50;100510.00;;;;4969418;28;20185;-43
2022/09/24 01:10:05;;;;;;;4.00;3.70;;;19.40;61.80;20.50;100506.00;;;;4969390;28;20237;-44
2022/09/24 01:12:57;;;;;;;5.80;3.97;;;19.40;62.20;20.50;100501.00;;;;4967492;28;20177;-43
2022/09/24 01:15:31;;;;;;;4.27;3.87;;;19.40;62.30;20.30;100502.00;;;;4967633;28;20351;-43
2022/09/24 01:18:21;;;;;;;4.30;3.90;;;19.40;62.40;20.50;100501.00;;;;4952268;28;20185;-42
2022/09/24 01:21:03;;;;;;;4.43;4.03;;;19.40;62.30;20.50;100488.00;;;;4967767;28;20584;-44
2022/09/24 01:23:59;;;;;;;4.30;3.90;;;19.30;62.30;20.50;100487.00;;;;4967564;28;20158;-43
2022/09/24 01:26:50;;;;;;;4.40;4.03;;;19.30;62.30;20.50;100471.00;;;;4968806;28;20181;-43
2022/09/24 01:29:42;;;;;;;5.67;4.20;;;19.30;62.30;20.50;100470.00;;;;4967555;28;20165;-44
2022/09/24 01:32:48;;;;;;;4.37;3.90;;;19.30;62.30;20.40;100476.00;;;;4967783;28;20546;-44
2022/09/24 01:35:30;;;;;;;4.10;3.70;;;19.30;62.30;20.40;100482.00;;;;4926856;29;20231;-44
2022/09/24 01:38:10;;;;;;;5.00;4.10;;;19.30;62.30;20.40;100483.00;;;;4949764;28;20244;-44
2022/09/24 01:40:36;;;;;;;4.40;3.70;;;19.30;62.30;20.40;100490.00;;;;4968229;28;20345;-45
2022/09/24 01:43:02;;;;;;;4.10;3.73;;;19.30;62.20;20.40;100476.00;;;;4971096;28;20180;-43
2022/09/24 01:45:30;;;;;;;4.20;3.80;;;19.30;62.20;20.40;100467.00;;;;4970716;28;20615;-44
2022/09/24 01:47:59;;;;;;;4.27;3.70;;;19.30;62.20;20.40;100452.00;;;;4970940;28;20590;-43
2022/09/24 01:50:25;;;;;;;4.13;3.80;;;19.30;62.20;20.40;100453.00;;;;4971054;28;20236;-44
2022/09/24 01:53:02;;;;;;;4.93;4.43;;;19.30;62.20;20.40;100472.00;;;;4971202;28;20181;-44
2022/09/24 01:55:33;;;;;;;4.40;4.00;;;19.30;62.20;20.40;100465.00;;;;4970607;28;20196;-44
2022/09/24 01:58:07;;;;;;;4.43;4.03;;;19.30;62.30;20.40;100451.00;;;;4970837;28;20189;-44
2022/09/24 02:00:33;;;;;;;4.00;3.70;;;19.30;62.20;20.40;100467.00;;;;4970787;28;20264;-43
2022/09/24 02:03:12;;;;;;;4.07;3.77;;;19.30;62.20;20.40;100466.00;;;;4954545;28;20260;-44
2022/09/24 02:05:52;;;;;;;4.40;4.00;;;19.30;62.10;20.30;100463.00;;;;4970565;28;20653;-44
2022/09/24 02:08:23;;;;;;;4.43;4.03;;;19.30;62.30;20.30;100468.00;;;;4970922;28;20286;-43
2022/09/24 02:11:10;;;;;;;4.70;3.63;;;19.30;62.20;20.30;100468.00;;;;4970722;28;20181;-44
2022/09/24 02:14:02;;;;;;;4.23;3.83;;;19.20;62.20;20.30;100459.00;;;;4970372;28;20196;-44
2022/09/24 02:16:40;;;;;;;4.30;3.80;;;19.20;62.30;20.30;100461.00;;;;4970677;28;20222;-44
2022/09/24 02:19:09;;;;;;;4.13;3.70;;;19.20;62.30;20.30;100472.00;;;;4970360;28;20161;-43
2022/09/24 02:21:35;;;;;;;4.10;3.70;;;19.20;62.20;20.30;100469.00;;;;4971631;28;20624;-44
2022/09/24 02:24:08;;;;;;;4.13;3.80;;;19.20;62.20;20.30;100462.00;;;;4970330;28;20276;-43
2022/09/24 02:26:34;;;;;;;3.73;3.43;;;19.20;62.30;20.30;100465.00;;;;4970170;28;20185;-43
2022/09/24 02:29:00;;;;;;;3.80;3.50;;;19.20;62.30;20.30;100467.00;;;;4973495;28;20177;-43
2022/09/24 02:31:36;;;;;;;4.40;3.87;;;19.10;62.30;20.20;100452.00;;;;4972584;28;20173;-44
2022/09/24 02:34:21;;;;;;;4.20;3.80;;;19.20;62.40;20.20;100460.00;;;;4970152;28;20552;-44
2022/09/24 02:37:04;;;;;;;3.77;3.47;;;19.20;62.50;20.20;100451.00;;;;4956449;28;20196;-44
2022/09/24 02:39:29;;;;;;;4.33;3.93;;;19.20;62.60;20.20;100444.00;;;;4969977;28;20170;-43
2022/09/24 02:41:55;;;;;;;3.87;3.50;;;19.20;62.60;20.20;100449.00;;;;4971022;28;20177;-43
2022/09/24 02:44:21;;;;;;;3.80;3.50;;;19.20;62.60;20.20;100446.00;;;;4971064;28;20201;-43
2022/09/24 02:46:47;;;;;;;3.77;3.47;;;19.10;62.70;20.20;100440.00;;;;4970859;28;20177;-44
2022/09/24 02:49:13;;;;;;;4.00;3.60;;;19.20;62.70;20.20;100432.00;;;;4971090;28;20688;-44
2022/09/24 02:51:40;;;;;;;3.80;3.50;;;19.20;62.70;20.20;100432.00;;;;4971178;28;20212;-43
2022/09/24 02:54:05;;;;;;;3.70;3.40;;;19.20;62.70;20.20;100422.00;;;;4970417;28;20276;-44
2022/09/24 02:56:31;;;;;;;4.60;3.60;;;19.10;62.70;20.20;100433.00;;;;4970770;28;20569;-43
2022/09/24 02:58:57;;;;;;;6.37;3.77;;;19.10;62.90;20.20;100425.00;;;;4971407;28;20184;-44
2022/09/24 03:01:23;;;;;;;5.63;3.80;;;19.10;63.90;20.20;100430.00;;;;4971590;28;20188;-43
2022/09/24 03:03:50;;;;;;;4.13;3.83;;;19.10;63.60;20.20;100434.00;;;;4970553;28;20200;-44
2022/09/24 03:06:15;;;;;;;4.40;3.70;;;19.10;63.60;20.20;100438.00;;;;4969729;28;20184;-44
2022/09/24 03:08:41;;;;;;;4.60;3.80;;;19.10;63.30;20.20;100352.00;;;;4970673;28;20180;-43
2022/09/24 03:11:09;;;;;;;3.87;3.50;;;19.10;63.10;20.20;100368.00;;;;4969241;28;20176;-43
2022/09/24 03:13:35;;;;;;;5.63;3.63;;;19.10;63.10;20.20;100430.00;;;;4970701;28;20256;-43
2022/09/24 03:16:01;;;;;;;4.00;3.50;;;19.10;63.10;20.20;100423.00;;;;4970469;28;20532;-44
2022/09/24 03:18:26;;;;;;;4.83;3.60;;;19.10;63.10;20.20;100416.00;;;;4970707;28;20590;-43
2022/09/24 03:21:09;;;;;;;4.10;3.60;;;19.10;63.10;20.20;100412.00;;;;4970904;28;20204;-44
2022/09/24 03:23:35;;;;;;;5.33;3.50;;;19.00;63.60;20.10;100415.00;;;;4971791;28;20236;-43
2022/09/24 03:26:01;;;;;;;3.73;3.43;;;19.10;62.80;20.10;100411.00;;;;4971035;28;20211;-44
2022/09/24 03:28:27;;;;;;;4.00;3.70;;;19.10;62.70;20.10;100410.00;;;;4970579;28;20223;-43
2022/09/24 03:30:59;;;;;;;3.70;3.40;;;19.00;62.50;20.10;100336.00;;;;4970172;28;20267;-44
2022/09/24 03:33:38;;;;;;;3.90;3.60;;;19.00;62.50;20.10;100400.00;;;;4970041;28;20176;-44
2022/09/24 03:36:14;;;;;;;4.40;3.17;;;19.00;62.50;20.10;100402.00;;;;4968948;28;20568;-44
2022/09/24 03:38:40;;;;;;;5.07;3.73;;;19.00;62.50;20.10;100400.00;;;;4970633;28;20172;-44
2022/09/24 03:41:06;;;;;;;3.50;3.20;;;19.00;62.40;20.10;100405.00;;;;4970409;28;20200;-44
2022/09/24 03:43:32;;;;;;;3.40;3.20;;;19.00;62.40;20.10;100320.00;;;;4968602;28;20176;-45
2022/09/24 03:45:58;;;;;;;3.47;3.17;;;19.00;62.40;20.10;100390.00;;;;4966700;28;20829;-43
2022/09/24 03:48:24;;;;;;;3.57;3.27;;;19.00;62.30;20.10;100387.00;;;;4967950;28;20271;-43
2022/09/24 03:50:50;;;;;;;3.93;3.60;;;19.00;62.20;20.10;100383.00;;;;4969456;28;20268;-45
2022/09/24 03:53:16;;;;;;;4.60;3.70;;;18.90;62.10;20.10;100384.00;;;;4969747;28;20319;-45
2022/09/24 03:55:47;;;;;;;3.73;3.40;;;18.90;62.20;20.10;100378.00;;;;4969353;28;20196;-44
2022/09/24 03:58:14;;;;;;;4.40;3.27;;;18.90;62.30;20.10;100380.00;;;;4969553;28;20161;-42
2022/09/24 04:00:41;;;;;;;3.70;3.17;;;18.90;62.30;20.00;100395.00;;;;4969372;28;20183;-43
2022/09/24 04:03:07;;;;;;;3.50;3.20;;;18.90;62.30;20.00;100396.00;;;;4969422;28;20562;-43
2022/09/24 04:05:33;;;;;;;3.50;3.20;;;18.90;62.30;20.10;100383.00;;;;4968920;28;20514;-45
2022/09/24 04:07:59;;;;;;;5.33;3.77;;;18.90;62.40;20.00;100387.00;;;;4968036;28;20303;-44
2022/09/24 04:10:24;;;;;;;4.97;3.63;;;18.90;62.30;20.00;100384.00;;;;4969095;28;20274;-43
2022/09/24 04:12:51;;;;;;;4.40;3.70;;;18.90;62.30;20.00;100393.00;;;;4969554;28;20176;-44
2022/09/24 04:15:17;;;;;;;6.00;3.40;;;18.90;62.30;20.00;100335.00;;;;4972537;28;20192;-44
2022/09/24 04:17:57;;;;;;;4.53;3.57;;;18.90;62.50;20.00;100388.00;;;;4969380;28;20168;-44
2022/09/24 04:20:25;;;;;;;5.53;3.40;;;18.90;62.50;20.00;100396.00;;;;4966215;28;20191;-44
2022/09/24 04:22:52;;;;;;;3.60;3.30;;;18.90;62.70;20.00;100389.00;;;;4969103;28;20586;-44
2022/09/24 04:25:18;;;;;;;4.00;3.03;;;18.90;62.70;19.80;100377.00;;;;4969275;28;20200;-44
2022/09/24 04:27:44;;;;;;;3.70;3.40;;;18.90;62.50;20.00;100375.00;;;;4969063;28;20534;-44
2022/09/24 04:30:13;;;;;;;5.37;3.50;;;18.80;62.50;19.90;100380.00;;;;4967738;28;20169;-43
2022/09/24 04:32:40;;;;;;;4.73;3.53;;;18.80;62.40;19.90;100371.00;;;;4968636;28;20177;-44
2022/09/24 04:35:06;;;;;;;4.30;3.50;;;18.80;62.40;19.90;100380.00;;;;4969840;28;20756;-44
2022/09/24 04:37:32;;;;;;;3.97;3.60;;;18.80;62.40;19.90;100377.00;;;;4968700;28;20205;-43
2022/09/24 04:39:58;;;;;;;3.83;3.27;;;18.80;62.40;19.90;100381.00;;;;4969487;28;20162;-44
2022/09/24 04:42:24;;;;;;;6.40;3.30;;;18.80;62.40;19.90;100374.00;;;;4969949;28;20176;-44
2022/09/24 04:44:49;;;;;;;4.03;3.50;;;18.80;62.40;19.90;100376.00;;;;4969559;28;20735;-44
2022/09/24 04:47:15;;;;;;;6.53;3.37;;;18.80;62.50;19.90;100376.00;;;;4970200;28;20206;-45
2022/09/24 04:49:44;;;;;;;4.53;3.17;;;18.80;62.70;19.70;100378.00;;;;4968593;28;20351;-44
2022/09/24 04:52:16;;;;;;;6.10;3.33;;;18.80;62.50;19.90;100378.00;;;;4969693;28;20589;-45
2022/09/24 04:54:43;;;;;;;5.20;3.90;;;18.80;62.70;19.90;100373.00;;;;4968541;28;20196;-45
2022/09/24 04:57:10;;;;;;;4.00;3.00;;;18.80;62.70;19.80;100374.00;;;;4967895;28;20204;-44
2022/09/24 04:59:35;;;;;;;4.43;3.63;;;18.80;62.70;19.80;100380.00;;;;4969136;28;20169;-45
2022/09/24 05:02:01;;;;;;;5.07;3.20;;;18.80;62.70;19.90;100377.00;;;;4969670;28;20179;-44
2022/09/24 05:04:29;;;;;;;5.87;3.30;;;18.80;62.70;19.90;100383.00;;;;4969684;28;20349;-45
2022/09/24 05:06:54;;;;;;;3.40;3.10;;;18.70;62.60;19.80;100383.00;;;;4969904;28;20181;-44
2022/09/24 05:09:20;;;;;;;5.23;3.23;;;18.80;62.50;19.80;100371.00;;;;4969177;28;20524;-44
2022/09/24 05:11:46;;;;;;;4.73;3.10;;;18.80;62.60;19.80;100385.00;;;;4969603;28;20173;-45
2022/09/24 05:14:11;;;;;;;4.27;3.00;;;18.70;62.40;19.80;100385.00;;;;4969170;28;20189;-43
2022/09/24 05:16:37;;;;;;;4.23;3.40;;;18.80;62.40;19.80;100369.00;;;;4972071;28;20284;-43
2022/09/24 05:19:03;;;;;;;5.03;3.17;;;18.70;62.40;19.80;100378.00;;;;4972877;28;20657;-44
2022/09/24 05:21:30;;;;;;;3.53;3.23;;;18.70;62.40;19.80;100379.00;;;;4973205;28;20176;-44
2022/09/24 05:23:56;;;;;;;3.13;2.90;;;18.70;62.40;19.80;100386.00;;;;4973137;28;20267;-44
2022/09/24 05:29:06;;;;;;;3.63;3.33;;;18.70;62.30;19.80;100382.00;;;;4972582;28;20185;-44
2022/09/24 05:31:31;;;;;;;3.30;2.97;;;18.70;62.40;19.80;100382.00;;;;4972986;28;20169;-44
2022/09/24 05:33:57;;;;;;;3.00;2.80;;;18.70;62.40;19.80;100391.00;;;;4972846;28;20200;-44
2022/09/24 05:36:25;;;;;;;4.10;3.03;;;18.70;62.40;19.80;100383.00;;;;4973162;28;20208;-45
2022/09/24 05:38:52;;;;;;;3.23;2.93;;;18.70;62.30;19.70;100370.00;;;;4972715;28;20177;-44
2022/09/24 05:41:18;;;;;;;3.43;2.90;;;18.60;62.20;19.80;100382.00;;;;4972684;28;20227;-42
2022/09/24 05:43:44;;;;;;;3.33;2.93;;;18.60;62.20;19.70;100383.00;;;;4972438;28;20193;-43
2022/09/24 05:46:09;;;;;;;3.30;2.90;;;18.60;62.20;19.70;100381.00;;;;4972836;28;20336;-45
2022/09/24 05:48:35;;;;;;;3.40;3.10;;;18.70;62.20;19.70;100388.00;;;;4972542;28;20181;-42
2022/09/24 05:51:01;;;;;;;3.60;3.20;;;18.60;62.10;19.70;100386.00;;;;4973017;28;20173;-43
2022/09/24 05:53:27;;;;;;;3.50;3.20;;;18.60;62.10;19.70;100392.00;;;;4971489;28;20164;-43
2022/09/24 05:55:53;;;;;;;3.50;3.20;;;18.60;62.20;19.70;100394.00;;;;4972533;28;20566;-44
2022/09/24 05:58:19;;;;;;;3.50;3.20;;;18.60;62.20;19.70;100394.00;;;;4972683;28;20164;-44
2022/09/24 06:00:45;;;;;;;3.30;3.00;;;18.60;62.30;19.70;100396.00;;;;4972332;28;20260;-43
2022/09/24 06:03:13;;;;;;;3.10;2.90;;;18.60;62.20;19.70;100397.00;;;;4975123;28;20409;-42
2022/09/24 06:05:45;;;;;;;3.13;2.93;;;18.60;62.20;19.70;100396.00;;;;4971579;28;20341;-42
2022/09/24 06:08:11;;;;;;;3.27;2.97;;;18.60;62.20;19.60;100401.00;;;;4972444;28;20577;-43
2022/09/24 06:10:36;;;;;;;3.10;2.80;;;18.60;62.20;19.70;100398.00;;;;4970701;28;20172;-43
2022/09/24 06:13:02;;;;;;;3.23;2.93;;;18.60;62.20;19.70;100403.00;;;;4972754;28;20188;-43
2022/09/24 06:15:28;;;;;;;3.40;3.10;;;18.60;62.20;19.70;100402.00;;;;4972009;28;20204;-44
2022/09/24 06:17:54;;;;;;;3.60;3.30;;;18.60;62.20;19.70;100402.00;;;;4972735;28;20310;-42
2022/09/24 06:20:21;;;;;;;3.23;2.93;;;18.60;62.20;19.60;100406.00;;;;4972336;28;20239;-43
2022/09/24 06:22:47;;;;;;;3.37;2.80;;;18.60;62.20;19.60;100416.00;;;;4972058;28;20341;-43
2022/09/24 06:25:12;;;;;;;2.90;2.70;;;18.60;62.10;19.60;100402.00;;;;4971921;28;20236;-44
2022/09/24 06:27:38;;;;;;;3.27;2.97;;;18.50;61.90;19.60;100417.00;;;;4971139;28;20173;-45
2022/09/24 06:30:05;;;;;;;3.43;3.10;;;18.50;62.00;19.60;100415.00;;;;4971355;28;20173;-45
2022/09/24 06:32:31;;;;;;;3.07;2.87;;;18.50;62.00;19.60;100409.00;;;;4972081;28;20208;-44
2022/09/24 06:34:56;;;;;;;3.00;2.80;;;18.50;62.10;19.60;100419.00;;;;4971705;28;20231;-44
2022/09/24 06:37:22;;;;;;;2.93;2.73;;;18.50;62.10;19.60;100406.00;;;;4970868;28;20197;-44
2022/09/24 06:39:48;;;;;;;3.20;2.90;;;18.50;62.10;19.60;100411.00;;;;4972040;28;20176;-44
2022/09/24 06:42:14;;;;;;;3.50;3.20;;;18.50;62.10;19.60;100422.00;;;;4972030;28;20165;-44
2022/09/24 06:44:41;;;;;;;3.73;3.07;;;18.50;62.10;19.60;100412.00;;;;4971973;28;20540;-44
2022/09/24 06:47:06;;;;;;;3.20;2.97;;;18.50;62.20;19.60;100411.00;;;;4971991;28;20247;-44
2022/09/24 06:49:32;;;;;;;2.90;2.70;;;18.50;62.10;19.60;100418.00;;;;4971110;28;20181;-44
2022/09/24 06:51:58;;;;;;;3.13;2.70;;;18.50;62.10;19.60;100430.00;;;;4970788;28;20176;-48
2022/09/24 06:54:24;;;;;;;3.07;2.87;;;18.50;62.10;19.60;100418.00;;;;4970432;28;20216;-44
2022/09/24 06:56:51;;;;;;;3.10;2.90;;;18.50;62.10;19.60;100425.00;;;;4970361;28;20217;-45
2022/09/24 06:59:17;;;;;;;3.13;2.93;;;18.50;62.20;19.60;100424.00;;;;4971482;28;20184;-44
2022/09/24 07:01:43;;;;;;;3.37;3.07;;;18.50;62.20;19.60;100429.00;;;;4971436;28;20652;-44
2022/09/24 07:04:09;;;;;;;3.10;2.90;;;18.50;62.10;19.60;100426.00;;;;4919569;28;20192;-44
2022/09/24 07:09:19;;;;;;;3.00;2.80;;;18.50;62.10;19.50;100419.00;;;;4971355;28;20183;-44
2022/09/24 07:11:45;;;;;;;2.97;2.77;;;18.40;62.00;19.50;100423.00;;;;4981890;28;20180;-44
2022/09/24 07:14:14;;;;;;;2.80;2.60;;;18.40;62.00;19.50;100422.00;;;;4977484;28;20696;-44
2022/09/24 07:16:40;;;;;;;2.97;2.77;;;18.40;62.00;19.50;100422.00;;;;4970865;28;20207;-44
2022/09/24 07:19:05;;;;;;;2.87;2.67;;;18.50;62.10;19.50;100425.00;;;;4970545;28;20235;-44
2022/09/24 07:21:31;;;;;;;3.30;3.00;;;18.40;62.10;19.50;100428.00;;;;4971005;28;20212;-44
2022/09/24 07:23:57;;;;;;;3.00;2.80;;;18.50;62.20;19.50;100435.00;;;;4970593;28;20244;-44
2022/09/24 07:26:23;;;;;;;3.13;2.90;;;18.50;62.20;19.50;100437.00;;;;4971140;28;20235;-44
2022/09/24 07:28:48;;;;;;;3.47;3.17;;;18.40;62.00;19.50;100433.00;;;;4971180;28;20646;-43
2022/09/24 07:31:16;;;;;;;3.20;3.00;;;18.40;62.10;19.50;100438.00;;;;4971104;28;20173;-44
2022/09/24 07:33:42;;;;;;;3.20;2.90;;;18.40;62.10;19.50;100441.00;;;;4970287;28;20209;-44
2022/09/24 07:36:07;;;;;;;3.13;2.83;;;18.40;62.10;19.50;100452.00;;;;4970752;28;20211;-43
2022/09/24 07:38:35;;;;;;;3.10;2.80;;;18.40;62.10;19.50;100447.00;;;;4969425;28;20169;-43
2022/09/24 07:41:02;;;;;;;3.00;2.70;;;18.40;62.10;19.50;100453.00;;;;4970733;28;20169;-43
2022/09/24 07:43:30;;;;;;;3.00;2.70;;;18.40;62.10;19.50;100446.00;;;;4970453;28;20255;-44
2022/09/24 07:45:57;;;;;;;3.03;2.70;;;18.40;62.10;19.50;100449.00;;;;4970968;28;20539;-44
2022/09/24 07:48:23;;;;;;;2.63;2.43;;;18.40;62.10;19.50;100454.00;;;;4970580;28;20188;-44
2022/09/24 07:50:50;;;;;;;2.93;2.73;;;18.40;62.20;19.50;100452.00;;;;4970626;28;20173;-43
2022/09/24 07:53:15;;;;;;;3.20;2.90;;;18.40;62.30;19.50;100451.00;;;;4970490;28;20180;-44
2022/09/24 07:55:41;;;;;;;3.63;2.80;;;18.40;62.30;19.50;100452.00;;;;4971664;28;20621;-43
2022/09/24 07:58:09;;;;;;;2.90;2.70;;;18.40;62.30;19.50;100451.00;;;;4971020;28;20244;-43
2022/09/24 08:00:35;;;;;;;4.73;3.00;;;18.40;62.30;19.40;100443.00;;;;4951072;29;20660;-42
2022/09/24 08:03:02;;;;;;;3.90;2.90;;;18.40;62.30;19.40;100445.00;;;;4951197;29;20209;-44
2022/09/24 08:05:27;;;;;;;4.80;3.00;;;18.30;62.20;19.40;100449.00;;;;4870536;28;20211;-43
2022/09/24 08:07:54;;;;;;;5.13;2.90;;;18.30;62.50;19.40;100448.00;;;;4989977;28;20164;-41
2022/09/24 08:10:21;;;;;;;6.67;3.00;;;18.40;62.80;19.40;100448.00;;;;4989493;28;20199;-44
2022/09/24 08:12:47;;;;;;;6.77;2.83;;;18.40;62.70;19.40;100446.00;;;;4988635;28;20182;-44
2022/09/24 08:15:13;;;;;;;3.30;2.97;;;18.40;62.80;19.40;100444.00;;;;4979073;28;20192;-44
2022/09/24 08:17:38;;;;;;;4.80;2.97;;;18.40;62.80;19.40;100454.00;;;;4970162;28;20817;-44
2022/09/24 08:20:06;;;;;;;4.00;2.90;;;18.40;62.80;19.40;100446.00;;;;4970056;28;20208;-44
2022/09/24 08:22:32;;;;;;;4.93;2.90;;;18.40;62.80;19.40;100452.00;;;;4967677;28;20188;-45
2022/09/24 08:24:58;;;;;;;5.13;3.10;;;18.40;62.80;19.40;100448.00;;;;4969015;28;20669;-43
2022/09/24 08:27:24;;;;;;;3.40;2.90;;;18.40;62.80;19.40;100449.00;;;;4969630;28;20203;-44
2022/09/24 08:29:50;;;;;;;4.23;2.93;;;18.40;62.80;19.40;100449.00;;;;4969733;28;20681;-44
2022/09/24 08:32:16;;;;;;;4.23;2.77;;;18.40;63.20;19.40;100451.00;;;;4970218;28;20177;-45
2022/09/24 08:34:44;;;;;;;8.80;2.80;;;18.40;64.00;19.40;100453.00;;;;4969964;28;20205;-44
2022/09/24 08:37:11;;;;;;;9.43;2.97;;;18.40;63.60;19.40;100449.00;;;;4970230;28;20251;-44
2022/09/24 08:39:36;;;;;;;3.17;2.87;;;18.40;64.00;19.40;100445.00;;;;4970049;28;20634;-44
2022/09/24 08:42:05;;;;;;;4.93;2.93;;;18.40;64.00;19.40;100452.00;;;;4969970;28;20258;-43
2022/09/24 08:47:53;;;;;;;3.87;2.90;;;18.40;63.50;19.20;100446.00;;;;4968946;28;20195;-43
2022/09/24 08:50:24;;;;;;;4.83;2.80;;;18.40;63.50;19.40;100451.00;;;;4967355;28;20207;-43
2022/09/24 08:52:53;;;;;;;3.00;2.80;;;18.40;63.80;19.40;100447.00;;;;4967304;28;20582;-43
2022/09/24 08:55:48;;;;;;;6.97;2.83;;;18.40;63.90;19.40;100425.00;;;;4967372;28;20197;-44
2022/09/24 08:58:16;;;;;;;16.87;2.97;;;18.40;63.60;19.40;100459.00;;;;4967769;28;20229;-43
2022/09/24 09:01:05;;;;;;;9.97;3.00;;;18.50;63.80;19.40;100464.00;;;;4969159;28;20200;-42
2022/09/24 09:03:38;;;;;;;5.50;2.87;;;18.50;63.70;19.20;100416.00;;;;4884998;28;20175;-43
2022/09/24 09:06:41;;;;;;;3.60;2.77;;;18.50;63.40;19.40;100462.00;;;;4949832;28;20177;-45
2022/09/24 09:09:24;;;;;;;10.90;2.90;;;18.50;63.70;19.40;100456.00;;;;4950076;29;20177;-43
2022/09/24 09:11:55;;;;;;;6.40;2.90;;;18.50;63.70;19.40;100453.00;;;;4950105;29;20209;-43
2022/09/24 09:14:43;;;;;;;6.07;3.00;;;18.50;63.70;19.40;100461.00;;;;4948605;29;20249;-43
2022/09/24 09:18:01;;;;;;;5.63;2.70;;;18.50;63.70;19.40;100455.00;;;;4951221;29;20284;-43
2022/09/24 09:20:39;;;;;;;7.40;2.97;;;18.50;63.70;19.40;100445.00;;;;4967866;28;20577;-43
2022/09/24 09:23:15;;;;;;;6.23;2.90;;;18.50;63.80;19.40;100458.00;;;;4988068;28;20180;-44
2022/09/24 09:25:51;;;;;;;16.33;3.40;;;18.50;64.00;19.40;100442.00;;;;4973857;28;20200;-44
2022/09/24 09:28:17;;;;;;;12.53;3.27;;;18.60;64.70;19.40;100473.00;;;;4953158;28;20578;-44
2022/09/24 09:31:17;;;;;;;18.87;3.30;;;18.70;64.50;19.50;100465.00;;;;4969518;28;20618;-43
2022/09/24 09:34:33;;;;;;;7.13;3.10;;;18.60;64.20;19.50;100459.00;;;;4955974;28;20216;-44
2022/09/24 09:37:11;;;;;;;15.50;3.57;;;18.60;64.40;19.50;100466.00;;;;4967872;28;20211;-45
2022/09/24 09:39:56;;;;;;;12.20;3.40;;;18.60;66.00;19.50;100449.00;;;;4968396;28;20178;-44
2022/09/24 09:42:34;;;;;;;12.27;2.97;;;18.70;67.90;19.50;100456.00;;;;4956069;28;20173;-43
2022/09/24 09:45:21;;;;;;;7.53;3.30;;;18.70;67.50;19.50;100461.00;;;;4969299;28;20196;-43
2022/09/24 09:47:52;;;;;;;8.57;3.03;;;18.70;67.90;19.50;100449.00;;;;4968126;28;20168;-43
2022/09/24 09:50:39;;;;;;;7.60;3.40;;;18.60;67.30;19.50;100451.00;;;;4968697;28;20260;-43
2022/09/24 09:53:05;;;;;;;10.97;3.60;;;18.60;67.50;19.50;100459.00;;;;4960537;28;20192;-42
2022/09/24 09:55:34;;;;;;;9.40;3.30;;;18.60;67.70;19.60;100457.00;;;;4969161;28;20278;-44
2022/09/24 09:58:15;;;;;;;8.33;3.47;;;18.60;67.50;19.60;100461.00;;;;4952026;28;20578;-44
2022/09/24 10:00:41;;;;;;;8.87;3.50;;;18.60;67.80;19.60;100449.00;;;;4949850;29;20185;-43
2022/09/24 10:03:43;;;;;;;10.70;3.73;;;18.60;67.90;19.40;100416.00;;;;4951369;28;20312;-43
2022/09/24 10:06:11;;;;;;;11.40;3.70;;;18.70;67.80;19.60;100456.00;;;;4964864;28;20204;-44
2022/09/24 10:08:36;;;;;;;5.17;3.30;;;18.70;68.00;19.60;100457.00;;;;4971432;28;20184;-43
2022/09/24 10:11:03;;;;;;;8.10;3.67;;;18.70;68.00;19.60;100454.00;;;;4972446;28;20192;-43
2022/09/24 10:13:31;;;;;;;9.10;3.40;;;18.70;68.00;19.60;100451.00;;;;4972007;28;20649;-43
2022/09/24 10:16:02;;;;;;;9.90;3.30;;;18.70;68.00;19.60;100452.00;;;;4971710;28;20717;-42
2022/09/24 10:18:42;;;;;;;9.50;3.47;;;18.70;68.00;19.70;100452.00;;;;4954883;28;20163;-42
2022/09/24 10:21:14;;;;;;;9.87;3.60;;;18.70;68.00;19.70;100446.00;;;;4970933;28;20175;-43
2022/09/24 10:23:45;;;;;;;9.47;3.80;;;18.70;68.00;19.70;100452.00;;;;4970813;28;20189;-43
2022/09/24 10:26:10;;;;;;;7.10;3.43;;;18.70;68.00;19.70;100450.00;;;;4955372;28;20184;-45
2022/09/24 10:31:29;;;;;;;6.03;3.30;;;18.70;67.80;19.70;100459.00;;;;4957783;28;20211;-42
2022/09/24 10:33:56;;;;;;;10.53;3.83;;;18.80;68.00;19.70;100455.00;;;;4971329;28;20206;-44
2022/09/24 10:36:29;;;;;;;11.10;3.57;;;18.70;67.90;19.70;100450.00;;;;4971772;28;20227;-44
2022/09/24 10:39:14;;;;;;;9.70;3.77;;;18.70;67.90;19.70;100453.00;;;;4970778;28;20165;-42
2022/09/24 10:41:51;;;;;;;9.17;3.53;;;18.70;67.80;19.70;100448.00;;;;4971440;28;20547;-43
2022/09/24 10:44:18;;;;;;;9.13;3.73;;;18.80;67.70;19.70;100455.00;;;;4971658;28;20192;-42
2022/09/24 10:47:06;;;;;;;7.33;3.60;;;18.70;67.60;19.50;100458.00;;;;4970457;28;20204;-44
2022/09/24 10:49:44;;;;;;;8.43;3.57;;;18.80;68.60;19.70;100452.00;;;;4971421;28;20188;-42
2022/09/24 10:52:50;;;;;;;6.67;3.50;;;18.80;67.40;19.70;100450.00;;;;4971312;28;20564;-44
2022/09/24 10:56:14;;;;;;;7.57;3.30;;;18.80;67.60;19.70;100450.00;;;;4969988;28;20281;-45
2022/09/24 10:59:33;;;;;;;7.60;3.43;;;18.80;67.50;19.70;100456.00;;;;4972452;28;20266;-42
2022/09/24 11:02:42;;;;;;;5.33;3.50;;;18.80;67.50;19.70;100451.00;;;;4965037;28;20227;-45
2022/09/24 11:05:12;;;;;;;8.03;3.27;;;18.80;67.40;19.70;100456.00;;;;4872335;28;20533;-43
2022/09/24 11:07:49;;;;;;;5.73;3.23;;;18.80;67.40;19.70;100445.00;;;;4989832;28;20168;-44
2022/09/24 11:10:38;;;;;;;4.37;3.30;;;18.80;67.30;19.70;100451.00;;;;4989349;28;20250;-44
2022/09/24 11:13:22;;;;;;;5.70;3.40;;;18.80;67.20;19.80;100449.00;;;;4989007;28;20160;-43
2022/09/24 11:16:32;;;;;;;8.17;3.67;;;18.80;67.20;19.80;100449.00;;;;4951568;29;20316;-44
2022/09/24 11:19:02;;;;;;;6.83;3.73;;;18.90;67.30;19.80;100452.00;;;;4947069;29;20197;-43